createdAt,value
2022-12-28T00:04:25.607Z,96.2
2022-12-28T00:09:25.725Z,96.5
2022-12-28T00:14:25.607Z,96.8
2022-12-28T00:19:25.813Z,97.0
2022-12-28T00:24:25.632Z,97.5
2022-12-28T00:29:25.621Z,97.6
2022-12-28T00:34:25.656Z,97.7
2022-12-28T00:39:25.745Z,97.7
2022-12-28T00:44:25.632Z,97.7
2022-12-28T00:49:25.839Z,97.6
2022-12-28T00:54:25.632Z,97.5
2022-12-28T00:59:25.628Z,97.2
2022-12-28T01:04:25.639Z,97.3
2022-12-28T01:09:25.762Z,97.2
2022-12-28T01:14:25.651Z,97.3
2022-12-28T01:19:25.855Z,97.1
2022-12-28T01:24:25.642Z,97.0
2022-12-28T01:29:25.653Z,96.8
2022-12-28T01:34:25.659Z,96.2
2022-12-28T01:39:25.771Z,96.0
2022-12-28T01:44:25.666Z,96.1
2022-12-28T01:49:25.864Z,95.9
2022-12-28T01:54:25.672Z,95.7
2022-12-28T01:59:25.669Z,95.6
2022-12-28T02:04:25.669Z,95.1
2022-12-28T02:09:25.783Z,95.3
2022-12-28T02:14:25.684Z,95.5
2022-12-28T02:19:25.889Z,95.9
2022-12-28T02:24:25.685Z,96.1
2022-12-28T02:29:25.705Z,96.0
2022-12-28T02:34:25.702Z,96.0
2022-12-28T02:39:25.812Z,96.2
2022-12-28T02:44:25.698Z,96.5
2022-12-28T02:49:25.894Z,97.0
2022-12-28T02:54:25.692Z,97.5
2022-12-28T02:59:25.704Z,98.4
2022-12-28T03:04:25.708Z,99.5
2022-12-28T03:09:25.769Z,100.0
2022-12-28T03:14:25.725Z,100.0
2022-12-28T03:19:25.764Z,100.0
2022-12-28T03:24:25.711Z,100.0
2022-12-28T03:29:25.716Z,100.0
2022-12-28T03:34:25.724Z,100.0
2022-12-28T03:39:25.835Z,100.0
2022-12-28T03:44:25.732Z,100.0
2022-12-28T03:49:25.789Z,100.0
2022-12-28T03:54:25.728Z,100.0
2022-12-28T03:59:25.733Z,100.0
2022-12-28T04:04:25.737Z,100.0
2022-12-28T04:09:25.869Z,100.0
2022-12-28T04:14:25.747Z,100.0
2022-12-28T04:19:25.805Z,100.0
2022-12-28T04:24:25.748Z,100.0
2022-12-28T04:29:25.746Z,100.0
2022-12-28T04:34:25.748Z,100.0
2022-12-28T04:39:25.818Z,100.0
2022-12-28T04:44:25.754Z,100.0
2022-12-28T04:49:25.827Z,100.0
2022-12-28T04:54:25.773Z,100.0
2022-12-28T04:59:25.773Z,100.0
2022-12-28T05:04:25.769Z,100.0
2022-12-28T05:09:25.835Z,100.0
2022-12-28T05:14:25.774Z,100.0
2022-12-28T05:19:25.826Z,100.0
2022-12-28T05:24:25.781Z,100.0
2022-12-28T05:29:25.779Z,100.0
2022-12-28T05:34:25.789Z,100.0
2022-12-28T05:39:25.898Z,100.0
2022-12-28T05:44:25.793Z,100.0
2022-12-28T05:49:25.980Z,100.0
2022-12-28T05:54:25.804Z,100.0
2022-12-28T05:59:25.800Z,100.0
2022-12-28T06:04:25.815Z,100.0
2022-12-28T06:09:25.875Z,100.0
2022-12-28T06:14:25.814Z,100.0
2022-12-28T06:19:26.000Z,100.0
2022-12-28T06:24:25.821Z,100.0
2022-12-28T06:29:25.823Z,100.0
2022-12-28T06:34:25.822Z,100.0
2022-12-28T06:39:25.890Z,100.0
2022-12-28T06:44:25.835Z,100.0
2022-12-28T06:49:26.030Z,100.0
2022-12-28T06:54:25.828Z,100.0
2022-12-28T06:59:25.837Z,100.0
2022-12-28T07:04:25.843Z,100.0
2022-12-28T07:09:25.953Z,100.0
2022-12-28T07:14:25.843Z,100.0
2022-12-28T07:19:26.051Z,100.0
2022-12-28T07:24:25.852Z,100.0
2022-12-28T07:29:25.853Z,100.0
2022-12-28T07:34:25.856Z,100.0
2022-12-28T07:39:25.968Z,100.0
2022-12-28T07:44:29.415Z,100.0
2022-12-28T07:49:26.099Z,100.0
2022-12-28T07:54:25.864Z,100.0
2022-12-28T07:59:30.817Z,100.0
2022-12-28T08:04:25.873Z,100.0
2022-12-28T08:09:25.997Z,100.0
2022-12-28T08:14:25.880Z,100.0
2022-12-28T08:19:26.088Z,100.0
2022-12-28T08:24:25.886Z,100.0
2022-12-28T08:29:25.884Z,100.0
2022-12-28T08:34:25.896Z,100.0
2022-12-28T08:39:26.020Z,100.0
2022-12-28T08:44:25.907Z,100.0
2022-12-28T08:49:25.955Z,100.0
2022-12-28T08:54:25.916Z,100.0
2022-12-28T08:59:25.908Z,100.0
2022-12-28T09:04:25.914Z,100.0
2022-12-28T09:09:26.023Z,100.0
2022-12-28T09:14:25.901Z,100.0
2022-12-28T09:19:25.970Z,100.0
2022-12-28T09:24:25.927Z,100.0
2022-12-28T09:29:25.920Z,100.0
2022-12-28T09:34:37.837Z,100.0
2022-12-28T09:39:26.096Z,100.0
2022-12-28T09:44:25.933Z,100.0
2022-12-28T09:49:25.987Z,100.0
2022-12-28T09:54:25.939Z,100.0
2022-12-28T09:59:25.940Z,100.0
2022-12-28T10:04:25.947Z,100.0
2022-12-28T10:09:26.056Z,100.0
2022-12-28T10:14:25.941Z,100.0
2022-12-28T10:19:26.152Z,100.0
2022-12-28T10:24:33.018Z,100.0
2022-12-28T10:29:25.957Z,100.0
2022-12-28T10:34:25.955Z,100.0
2022-12-28T10:39:26.029Z,100.0
2022-12-28T10:44:40.456Z,100.0
2022-12-28T10:49:25.959Z,100.0
2022-12-28T10:54:28.230Z,100.0
2022-12-28T10:59:25.971Z,100.0
2022-12-28T11:04:25.980Z,100.0
2022-12-28T11:09:26.048Z,100.0
2022-12-28T11:14:25.973Z,100.0
2022-12-28T11:19:25.998Z,100.0
2022-12-28T11:24:26.037Z,100.0
2022-12-28T11:29:25.986Z,100.0
2022-12-28T11:34:25.996Z,100.0
2022-12-28T11:39:26.087Z,100.0
2022-12-28T11:44:25.994Z,100.0
2022-12-28T11:49:25.996Z,100.0
2022-12-28T11:54:26.049Z,100.0
2022-12-28T11:59:26.007Z,100.0
2022-12-28T12:04:25.999Z,100.0
2022-12-28T12:09:26.071Z,100.0
2022-12-28T12:14:26.020Z,100.0
2022-12-28T12:19:26.017Z,100.0
2022-12-28T12:24:26.077Z,100.0
2022-12-28T12:29:26.017Z,100.0
2022-12-28T12:34:26.020Z,100.0
2022-12-28T12:39:26.139Z,100.0
2022-12-28T12:44:26.025Z,100.0
2022-12-28T12:49:26.035Z,100.0
2022-12-28T12:54:26.084Z,100.0
2022-12-28T12:59:26.034Z,100.0
2022-12-28T13:04:26.041Z,100.0
2022-12-28T13:09:26.048Z,100.0
2022-12-28T13:14:26.167Z,100.0
2022-12-28T13:19:26.055Z,100.0
2022-12-28T13:24:26.113Z,100.0
2022-12-28T13:29:26.070Z,100.0
2022-12-28T13:34:26.075Z,100.0
2022-12-28T13:39:26.081Z,100.0
2022-12-28T13:44:26.071Z,100.0
2022-12-28T13:49:26.190Z,100.0
2022-12-28T13:54:26.124Z,100.0
2022-12-28T13:59:26.076Z,100.0
2022-12-28T14:04:51.660Z,100.0
2022-12-28T14:09:26.079Z,100.0
2022-12-28T14:14:26.078Z,100.0
2022-12-28T14:19:26.079Z,100.0
2022-12-28T14:24:26.217Z,100.0
2022-12-28T14:29:26.142Z,100.0
2022-12-28T14:34:26.104Z,99.5
2022-12-28T14:39:26.099Z,99.4
2022-12-28T14:44:26.099Z,99.2
2022-12-28T14:49:26.100Z,99.0
2022-12-28T14:54:26.238Z,98.9
2022-12-28T14:59:26.104Z,98.5
2022-12-28T15:04:26.166Z,98.0
2022-12-28T15:09:26.110Z,97.9
2022-12-28T15:14:26.112Z,97.9
2022-12-28T15:19:26.121Z,97.4
2022-12-28T15:24:31.906Z,97.3
2022-12-28T15:29:39.960Z,97.2
2022-12-28T15:34:26.181Z,97.0
2022-12-28T15:39:26.142Z,96.4
2022-12-28T15:44:26.126Z,96.1
2022-12-28T15:49:26.143Z,95.7
2022-12-28T15:54:26.258Z,95.9
2022-12-28T15:59:26.157Z,95.9
2022-12-28T16:04:26.197Z,96.0
2022-12-28T16:09:26.141Z,95.7
2022-12-28T16:14:26.154Z,95.6
2022-12-28T16:19:26.157Z,95.1
2022-12-28T16:24:26.285Z,95.1
2022-12-28T16:29:26.159Z,95.3
2022-12-28T16:34:26.217Z,95.7
2022-12-28T16:39:26.187Z,96.5
2022-12-28T16:44:26.180Z,97.0
2022-12-28T16:49:26.168Z,97.4
2022-12-28T16:54:26.228Z,98.3
2022-12-28T16:59:26.183Z,98.5
2022-12-28T17:04:26.251Z,98.9
2022-12-28T17:09:26.183Z,99.1
2022-12-28T17:14:36.268Z,99.2
2022-12-28T17:19:26.183Z,99.4
2022-12-28T17:24:26.305Z,99.5
2022-12-28T17:29:26.189Z,99.6
2022-12-28T17:34:26.253Z,99.8
2022-12-28T17:39:26.200Z,100.0
2022-12-28T17:44:26.197Z,100.0
2022-12-28T17:49:26.211Z,100.0
2022-12-28T17:54:26.322Z,100.0
2022-12-28T17:59:26.219Z,100.0
2022-12-28T18:04:26.268Z,100.0
2022-12-28T18:09:28.097Z,100.0
2022-12-28T18:14:26.241Z,100.0
2022-12-28T18:19:26.223Z,100.0
2022-12-28T18:24:26.345Z,100.0
2022-12-28T18:29:26.274Z,100.0
2022-12-28T18:34:26.277Z,100.0
2022-12-28T18:39:26.233Z,100.0
2022-12-28T18:44:26.258Z,100.0
2022-12-28T18:49:26.237Z,100.0
2022-12-28T18:54:26.364Z,100.0
2022-12-28T18:59:26.238Z,100.0
2022-12-28T19:04:26.423Z,100.0
2022-12-28T19:09:26.255Z,100.0
2022-12-28T19:14:26.263Z,100.0
2022-12-28T19:19:26.250Z,100.0
2022-12-28T19:24:26.384Z,100.0
2022-12-28T19:29:26.264Z,100.0
2022-12-28T19:34:26.332Z,100.0
2022-12-28T19:39:26.273Z,100.0
2022-12-28T19:44:26.266Z,100.0
2022-12-28T19:49:26.279Z,100.0
2022-12-28T19:54:26.397Z,100.0
2022-12-28T19:59:26.311Z,100.0
2022-12-28T20:04:26.332Z,100.0
2022-12-28T20:09:26.285Z,100.0
2022-12-28T20:14:26.289Z,100.0
2022-12-28T20:19:26.290Z,100.0
2022-12-28T20:24:26.353Z,100.0
2022-12-28T20:29:26.290Z,100.0
2022-12-28T20:34:26.354Z,100.0
2022-12-28T20:39:26.305Z,100.0
2022-12-28T20:44:26.400Z,100.0
2022-12-28T20:49:26.313Z,100.0
2022-12-28T20:54:26.373Z,100.0
2022-12-28T20:59:26.391Z,100.0
2022-12-28T21:04:26.414Z,100.0
2022-12-28T21:09:26.328Z,100.0
2022-12-28T21:14:26.315Z,100.0
2022-12-28T21:19:26.327Z,100.0
2022-12-28T21:24:26.444Z,100.0
2022-12-28T21:29:26.369Z,100.0
2022-12-28T21:34:26.385Z,100.0
2022-12-28T21:39:26.351Z,100.0
2022-12-28T21:44:26.339Z,100.0
2022-12-28T21:49:26.353Z,100.0
2022-12-28T21:54:26.456Z,100.0
2022-12-28T21:59:26.358Z,100.0
2022-12-28T22:04:26.403Z,100.0
2022-12-28T22:09:26.342Z,100.0
2022-12-28T22:14:26.349Z,100.0
2022-12-28T22:19:26.360Z,100.0
2022-12-28T22:24:26.477Z,100.0
2022-12-28T22:29:26.365Z,100.0
2022-12-28T22:34:26.426Z,100.0
2022-12-28T22:39:26.363Z,100.0
2022-12-28T22:44:26.363Z,100.0
2022-12-28T22:49:26.387Z,100.0
2022-12-28T22:54:26.464Z,100.0
2022-12-28T22:59:26.399Z,100.0
2022-12-28T23:04:26.434Z,100.0
2022-12-28T23:09:26.405Z,100.0
2022-12-28T23:14:26.395Z,100.0
2022-12-28T23:19:26.392Z,100.0
2022-12-28T23:24:26.500Z,100.0
2022-12-28T23:29:30.549Z,100.0
2022-12-28T23:34:26.457Z,100.0
2022-12-28T23:39:26.408Z,100.0
2022-12-28T23:44:26.441Z,100.0
2022-12-28T23:49:26.416Z,99.6
2022-12-28T23:54:26.522Z,99.3
2022-12-28T23:59:26.403Z,98.9
